地図

経路データ

SID SEASON NUMBER BASIN SUBBASIN NAME ISO_TIME NATURE LAT LON WMO_WIND WMO_PRES WMO_AGENCY TRACK_TYPE DIST2LAND LANDFALL IFLAG USA_AGENCY USA_ATCF_ID USA_LAT USA_LON USA_RECORD USA_STATUS USA_WIND USA_PRES USA_SSHS USA_R34_NE USA_R34_SE USA_R34_SW USA_R34_NW USA_R50_NE USA_R50_SE USA_R50_SW USA_R50_NW USA_R64_NE USA_R64_SE USA_R64_SW USA_R64_NW USA_POCI USA_ROCI USA_RMW USA_EYE TOKYO_LAT TOKYO_LON TOKYO_GRADE TOKYO_WIND TOKYO_PRES TOKYO_R50_DIR TOKYO_R50_LONG TOKYO_R50_SHORT TOKYO_R30_DIR TOKYO_R30_LONG TOKYO_R30_SHORT TOKYO_LAND CMA_LAT CMA_LON CMA_CAT CMA_WIND CMA_PRES HKO_LAT HKO_LON HKO_CAT HKO_WIND HKO_PRES NEWDELHI_LAT NEWDELHI_LON NEWDELHI_GRADE NEWDELHI_WIND NEWDELHI_PRES NEWDELHI_CI NEWDELHI_DP NEWDELHI_POCI REUNION_LAT REUNION_LON REUNION_TYPE REUNION_WIND REUNION_PRES REUNION_TNUM REUNION_CI REUNION_RMW REUNION_R34_NE REUNION_R34_SE REUNION_R34_SW REUNION_R34_NW REUNION_R50_NE REUNION_R50_SE REUNION_R50_SW REUNION_R50_NW REUNION_R64_NE REUNION_R64_SE REUNION_R64_SW REUNION_R64_NW BOM_LAT BOM_LON BOM_TYPE BOM_WIND BOM_PRES BOM_TNUM BOM_CI BOM_RMW BOM_R34_NE BOM_R34_SE BOM_R34_SW BOM_R34_NW BOM_R50_NE BOM_R50_SE BOM_R50_SW BOM_R50_NW BOM_R64_NE BOM_R64_SE BOM_R64_SW BOM_R64_NW BOM_ROCI BOM_POCI BOM_EYE BOM_POS_METHOD BOM_PRES_METHOD NADI_LAT NADI_LON NADI_CAT NADI_WIND NADI_PRES WELLINGTON_LAT WELLINGTON_LON WELLINGTON_WIND WELLINGTON_PRES DS824_LAT DS824_LON DS824_STAGE DS824_WIND DS824_PRES TD9636_LAT TD9636_LON TD9636_STAGE TD9636_WIND TD9636_PRES TD9635_LAT TD9635_LON TD9635_WIND TD9635_PRES TD9635_ROCI NEUMANN_LAT NEUMANN_LON NEUMANN_CLASS NEUMANN_WIND NEUMANN_PRES MLC_LAT MLC_LON MLC_CLASS MLC_WIND MLC_PRES USA_GUST BOM_GUST BOM_GUST_PER REUNION_GUST REUNION_GUST_PER USA_SEAHGT USA_SEARAD_NE USA_SEARAD_SE USA_SEARAD_SW USA_SEARAD_NW STORM_SPEED STORM_DIR
1921223N24129 1921 37 WP MM NOT_NAMED 1921-08-10 22:00:00 NR 24.4000 129.200 main 729 727 __________O___ -1 24.4000 129.200 4 5 5
1921223N24129 1921 37 WP MM NOT_NAMED 1921-08-11 00:00:00 NR 24.5576 129.212 main 727 707 __________P___ -1 24.5576 129.212 4 5 3
1921223N24129 1921 37 WP MM NOT_NAMED 1921-08-11 03:00:00 NR 24.7911 129.225 main 707 685 __________P___ -1 24.7911 129.225 4 5 0
1921223N24129 1921 37 WP MM NOT_NAMED 1921-08-11 06:00:00 NR 25.0173 129.227 main 685 664 __________P___ -1 25.0173 129.227 4 4 0
1921223N24129 1921 37 WP MM NOT_NAMED 1921-08-11 09:00:00 NR 25.2319 129.211 main 664 653 __________P___ -1 25.2319 129.211 4 4 0
1921223N24129 1921 37 WP MM NOT_NAMED 1921-08-11 10:00:00 NR 25.3000 129.200 main 653 642 __________O___ -1 25.3000 129.200 4 4 350
1921223N24129 1921 37 WP MM NOT_NAMED 1921-08-11 12:00:00 NR 25.4306 129.169 main 642 622 __________P___ -1 25.4306 129.169 4 4 344
1921223N24129 1921 37 WP MM NOT_NAMED 1921-08-11 15:00:00 NR 25.6141 129.098 main 622 603 __________P___ -1 25.6141 129.098 4 4 336
1921223N24129 1921 37 WP MM NOT_NAMED 1921-08-11 18:00:00 NR 25.7852 128.994 main 603 595 __________P___ -1 25.7852 128.994 4 4 327
1921223N24129 1921 37 WP MM NOT_NAMED 1921-08-11 21:00:00 NR 25.9474 128.855 main 595 588 __________P___ -1 25.9474 128.855 4 4 321
1921223N24129 1921 37 WP MM NOT_NAMED 1921-08-11 22:00:00 NR 26.0000 128.800 main 588 580 __________O___ -1 26.0000 128.800 4 4 316
1921223N24129 1921 37 WP MM NOT_NAMED 1921-08-12 00:00:00 NR 26.1057 128.684 main 580 566 __________P___ -1 26.1057 128.684 4 5 312
1921223N24129 1921 37 WP MM NOT_NAMED 1921-08-12 03:00:00 NR 26.2580 128.478 main 566 564 __________P___ -1 26.2580 128.478 4 5 307
1921223N24129 1921 37 WP MM NOT_NAMED 1921-08-12 06:00:00 NR 26.4054 128.243 main 568 556 __________P___ -1 26.4054 128.243 4 5 304
1921223N24129 1921 37 WP MM NOT_NAMED 1921-08-12 09:00:00 NR 26.5512 127.988 main 556 556 __________P___ -1 26.5512 127.988 4 5 302
1921223N24129 1921 37 WP MM NOT_NAMED 1921-08-12 10:00:00 NR 26.6000 127.900 main 560 553 __________O___ -1 26.6000 127.900 4 5 304
1921223N24129 1921 37 WP MM NOT_NAMED 1921-08-12 12:00:00 NR 26.6998 127.738 main 557 552 __________P___ -1 26.6998 127.738 4 5 304
1921223N24129 1921 37 WP MM NOT_NAMED 1921-08-12 15:00:00 NR 26.8496 127.484 main 556 546 __________P___ -1 26.8496 127.484 4 6 302
1921223N24129 1921 37 WP MM NOT_NAMED 1921-08-12 18:00:00 NR 26.9996 127.209 main 551 534 __________P___ -1 26.9996 127.209 4 6 300
1921223N24129 1921 37 WP MM NOT_NAMED 1921-08-12 21:00:00 NR 27.1498 126.907 main 534 520 __________P___ -1 27.1498 126.907 4 6 299
1921223N24129 1921 37 WP MM NOT_NAMED 1921-08-12 22:00:00 NR 27.2000 126.800 main 520 497 __________O___ -1 27.2000 126.800 4 7 297
1921223N24129 1921 37 WP MM NOT_NAMED 1921-08-13 00:00:00 NR 27.3026 126.575 main 497 452 __________P___ -1 27.3026 126.575 4 7 296
1921223N24129 1921 37 WP MM NOT_NAMED 1921-08-13 03:00:00 NR 27.4565 126.213 main 452 411 __________P___ -1 27.4565 126.213 4 7 295
1921223N24129 1921 37 WP MM NOT_NAMED 1921-08-13 06:00:00 NR 27.6078 125.830 main 411 366 __________P___ -1 27.6078 125.830 4 8 293
1921223N24129 1921 37 WP MM NOT_NAMED 1921-08-13 09:00:00 NR 27.7533 125.433 main 366 357 __________P___ -1 27.7533 125.433 4 8 292
1921223N24129 1921 37 WP MM NOT_NAMED 1921-08-13 10:00:00 NR 27.8000 125.300 main 357 326 __________O___ -1 27.8000 125.300 4 8 292
1921223N24129 1921 37 WP MM NOT_NAMED 1921-08-13 12:00:00 NR 27.8941 125.039 main 326 286 __________P___ -1 27.8941 125.039 4 8 291
1921223N24129 1921 37 WP MM NOT_NAMED 1921-08-13 15:00:00 NR 28.0292 124.641 main 286 241 __________P___ -1 28.0292 124.641 4 8 290
1921223N24129 1921 37 WP MM NOT_NAMED 1921-08-13 18:00:00 NR 28.1543 124.239 main 241 202 __________P___ -1 28.1543 124.239 4 7 288
1921223N24129 1921 37 WP MM NOT_NAMED 1921-08-13 21:00:00 NR 28.2662 123.835 main 202 193 __________P___ -1 28.2662 123.835 4 7 287
1921223N24129 1921 37 WP MM NOT_NAMED 1921-08-13 22:00:00 NR 28.3000 123.700 main 193 162 __________O___ -1 28.3000 123.700 4 7 285
1921223N24129 1921 37 WP MM NOT_NAMED 1921-08-14 00:00:00 NR 28.3610 123.438 main 162 131 __________P___ -1 28.3610 123.438 4 7 284
1921223N24129 1921 37 WP MM NOT_NAMED 1921-08-14 03:00:00 NR 28.4402 123.046 main 131 90 __________P___ -1 28.4402 123.046 4 7 282
1921223N24129 1921 37 WP MM NOT_NAMED 1921-08-14 06:00:00 NR 28.5102 122.649 main 90 49 __________P___ -1 28.5102 122.649 4 7 281
1921223N24129 1921 37 WP MM NOT_NAMED 1921-08-14 09:00:00 NR 28.5772 122.240 main 49 40 __________P___ -1 28.5772 122.240 4 7 281
1921223N24129 1921 37 WP MM NOT_NAMED 1921-08-14 10:00:00 NR 28.6000 122.100 main 40 14 __________O___ -1 28.6000 122.100 4 8 281
1921223N24129 1921 37 WP MM NOT_NAMED 1921-08-14 12:00:00 NR 28.6472 121.814 main 14 0 __________P___ -1 28.6472 121.814 4 8 281
1921223N24129 1921 37 WP MM NOT_NAMED 1921-08-14 15:00:00 NR 28.7212 121.371 main 0 0 __________P___ -1 28.7212 121.371 4 8 281
1921223N24129 1921 37 WP MM NOT_NAMED 1921-08-14 18:00:00 NR 28.7975 120.917 main 0 0 __________P___ -1 28.7975 120.917 4 8 281
1921223N24129 1921 37 WP MM NOT_NAMED 1921-08-14 21:00:00 NR 28.8745 120.455 main 0 0 __________P___ -1 28.8745 120.455 4 8 281
1921223N24129 1921 37 WP MM NOT_NAMED 1921-08-14 22:00:00 NR 28.9000 120.300 main 0 __________O___ -1 28.9000 120.300 7 8 281

デジタル台風データ・検索

IBTrACS Databaseについて

本データベースは、米国NOAAが公開する1842年以降の世界の熱帯低気圧のベストトラックデータアーカイブInternational Best Track Archive for Climate Stewardship (IBTrACS)を、ウェブで閲覧しやすい形式に変換したものです。

最終更新日:2021-10-21